createdAt,value
2023-04-20T00:05:28.952Z,92.43
2023-04-20T00:15:31.245Z,92.19
2023-04-20T00:25:33.356Z,90.19
2023-04-20T00:35:37.304Z,91.02
2023-04-20T00:45:39.284Z,92.22
2023-04-20T00:55:43.852Z,90.92
2023-04-20T01:05:45.884Z,90.36
2023-04-20T01:15:49.240Z,90.39
2023-04-20T01:25:51.174Z,90.49
2023-04-20T01:35:53.533Z,89.92
2023-04-20T01:45:55.536Z,91.60
2023-04-20T01:55:57.481Z,88.01
2023-04-20T02:05:59.480Z,88.38
2023-04-20T02:16:01.583Z,88.69
2023-04-20T02:26:03.727Z,89.24
2023-04-20T02:36:06.043Z,87.05
2023-04-20T02:46:08.410Z,86.71
2023-04-20T02:56:10.316Z,88.15
2023-04-20T03:06:15.876Z,88.32
2023-04-20T03:16:18.424Z,89.30
2023-04-20T03:26:24.504Z,89.69
2023-04-20T03:36:28.609Z,89.89
2023-04-20T03:46:30.623Z,89.60
2023-04-20T03:56:34.998Z,88.11
2023-04-20T04:06:37.022Z,87.59
2023-04-20T04:16:38.961Z,86.29
2023-04-20T04:26:41.172Z,86.10
2023-04-20T04:36:44.485Z,84.79
2023-04-20T04:46:47.774Z,83.38
2023-04-20T04:56:50.971Z,82.94
2023-04-20T05:06:52.993Z,82.02
2023-04-20T05:16:55.095Z,77.66
2023-04-20T05:26:56.993Z,77.09
2023-04-20T05:36:59.779Z,78.53
2023-04-20T05:47:06.597Z,75.50
2023-04-20T05:57:08.795Z,75.47
2023-04-20T06:07:13.011Z,69.68
2023-04-20T06:17:17.065Z,65.90
2023-04-20T06:27:21.205Z,62.75
2023-04-20T06:37:24.283Z,61.18
2023-04-20T06:47:34.287Z,57.56
2023-04-20T06:57:38.866Z,53.91
2023-04-20T07:07:45.292Z,51.50
2023-04-20T07:17:47.461Z,51.75
2023-04-20T07:27:50.538Z,50.13
2023-04-20T07:37:52.667Z,48.40
2023-04-20T07:47:55.806Z,45.59
2023-04-20T07:57:58.156Z,45.05
2023-04-20T08:08:02.174Z,44.01
2023-04-20T08:18:06.347Z,45.98
2023-04-20T08:28:15.348Z,44.97
2023-04-20T08:38:32.799Z,40.51
2023-04-20T08:48:37.627Z,41.30
2023-04-20T08:58:42.533Z,40.27
2023-04-20T09:08:46.668Z,39.35
2023-04-20T09:18:58.530Z,38.59
2023-04-20T09:29:02.638Z,37.04
2023-04-20T09:39:11.779Z,36.31
2023-04-20T09:49:15.097Z,36.08
2023-04-20T09:59:19.873Z,34.19
2023-04-20T10:09:29.200Z,34.48
2023-04-20T10:19:40.785Z,33.71
2023-04-20T10:29:42.823Z,34.75
2023-04-20T10:39:47.423Z,33.47
2023-04-20T10:49:49.446Z,34.27
2023-04-20T10:59:51.356Z,31.41
2023-04-20T11:09:57.009Z,31.64
2023-04-20T11:20:14.168Z,29.46
2023-04-20T11:30:16.401Z,29.04
2023-04-20T11:40:18.472Z,30.72
2023-04-20T11:50:22.408Z,30.45
2023-04-20T12:00:27.493Z,30.36
2023-04-20T12:10:29.724Z,29.57
2023-04-20T12:20:31.762Z,30.12
2023-04-20T12:30:35.567Z,29.91
2023-04-20T12:40:37.520Z,27.65
2023-04-20T12:50:39.469Z,27.96
2023-04-20T13:00:43.176Z,28.59
2023-04-20T13:10:45.340Z,30.57
2023-04-20T13:20:47.479Z,30.91
2023-04-20T13:30:49.484Z,29.82
2023-04-20T13:40:51.488Z,28.77
2023-04-20T13:50:54.500Z,30.89
2023-04-20T14:00:56.636Z,30.76
2023-04-20T14:10:58.719Z,32.38
2023-04-20T14:21:01.025Z,30.15
2023-04-20T14:31:03.328Z,29.79
2023-04-20T14:41:05.713Z,29.66
2023-04-20T14:51:07.681Z,28.68
2023-04-20T15:01:11.530Z,30.05
2023-04-20T15:11:14.532Z,31.00
2023-04-20T15:21:16.704Z,30.39
2023-04-20T15:31:19.503Z,27.92
2023-04-20T15:41:22.564Z,28.85
2023-04-20T15:51:25.623Z,28.29
2023-04-20T16:01:28.686Z,28.35
2023-04-20T16:11:30.796Z,32.86
2023-04-20T16:21:32.972Z,32.92
2023-04-20T16:31:36.903Z,30.44
2023-04-20T16:41:38.901Z,29.12
2023-04-20T16:51:40.951Z,29.26
2023-04-20T17:01:43.080Z,30.73
2023-04-20T17:11:46.146Z,31.40
2023-04-20T17:21:48.159Z,33.00
2023-04-20T17:31:50.575Z,38.58
2023-04-20T17:41:53.146Z,41.01
2023-04-20T17:51:57.618Z,42.26
2023-04-20T18:02:01.323Z,43.31
2023-04-20T18:12:18.213Z,45.07
2023-04-20T18:22:20.456Z,44.28
2023-04-20T18:32:28.366Z,46.50
2023-04-20T18:42:40.057Z,44.92
2023-04-20T18:52:48.943Z,45.13
2023-04-20T19:02:51.328Z,48.49
2023-04-20T19:12:54.030Z,49.73
2023-04-20T19:22:56.700Z,47.09
2023-04-20T19:33:05.889Z,47.57
2023-04-20T19:43:18.099Z,48.98
2023-04-20T19:53:34.109Z,50.54
2023-04-20T20:03:37.499Z,50.86
2023-04-20T20:13:56.986Z,51.72
2023-04-20T20:23:58.849Z,51.98
2023-04-20T20:34:00.917Z,52.27
2023-04-20T20:44:02.822Z,54.09
2023-04-20T20:54:05.132Z,54.47
2023-04-20T21:04:07.350Z,54.15
2023-04-20T21:14:09.615Z,53.98
2023-04-20T21:24:11.675Z,52.16
2023-04-20T21:34:13.749Z,54.68
2023-04-20T21:44:37.526Z,53.98
2023-04-20T21:54:41.137Z,54.28
2023-04-20T22:05:40.813Z,54.11
2023-04-20T22:15:51.624Z,53.65
2023-04-20T22:26:09.925Z,54.71
2023-04-20T22:36:16.075Z,54.09
2023-04-20T22:46:18.280Z,56.80
2023-04-20T22:56:20.282Z,55.62
2023-04-20T23:06:22.696Z,56.71
2023-04-20T23:16:40.145Z,57.35
2023-04-20T23:38:04.431Z,59.04
2023-04-20T23:48:06.866Z,60.36
2023-04-20T23:58:09.001Z,59.45
